KCGZ/CGZ METAR and TAF weather

Enter ICAO airport designator
Station Type Date Time Source
KCGZ METAR 2021/01/16 00:56 UTC NOAA

KCGZ 160056Z AUTO 31006KT 10SM CLR 20/M11 A3007 RMK AO2 SLP181 T02001106


Station Type Date Time Source
KCGZ Decoded METAR 2021/01/16 00:56 UTC NOAA

Casa Grande, Casa Grande Municipal Airport, AZ, United States (KCGZ) 32-57N 111-46W
Jan 15, 2021 - 07:56 PM EST / 2021.01.16 0056 UTC
Wind: from the NW (310 degrees) at 7 MPH (6 KT):0
Visibility: 10 mile(s):0
Sky conditions: clear
Temperature: 68.0 F (20.0 C)
Dew Point: 12.9 F (-10.6 C)
Relative Humidity: 11%
Pressure (altimeter): 30.07 in. Hg (1018 hPa)
ob: KCGZ 160056Z AUTO 31006KT 10SM CLR 20/M11 A3007 RMK AO2 SLP181 T02001106
cycle: 1

Station Type Date Time Source
KCGZ TAF UTC NOAA

Error!

Example: see airport list